SAS1879 ENZV-EKCH
Flight info
| Callsign | SAS1879 |
|---|---|
| Flight time | 1h 12m |
| Altitude | 31000 |
| Route | BIVKI DCT ODRID DCT TESPI |
| Aircraft | A20N/M-SDE2E3FGHIRWXY/LB1 |
Departure
| Time | 2026-05-06 18:49 |
|---|---|
| Airport | Stavanger Airport, Sola (ENZV) |
Arrival
| Time | 2026-05-06 20:01 |
|---|---|
| Airport | Copenhagen Kastrup Airport (EKCH) |
| Time | Latitude | Longitude | Altitude | Speed | Heading |
|---|---|---|---|---|---|
| 2026-05-06 18:10 | 58.88198 | 5.63106 | 29 ft | 0 kts | 285° |
| 2026-05-06 18:38 | 58.88197 | 5.63110 | 29 ft | 2 kts | 285° |
| 2026-05-06 18:38 | 58.88193 | 5.63138 | 30 ft | 2 kts | 284° |
| 2026-05-06 18:38 | 58.88189 | 5.63166 | 30 ft | 2 kts | 285° |
| 2026-05-06 18:39 | 58.88186 | 5.63194 | 30 ft | 2 kts | 285° |
| 2026-05-06 18:39 | 58.88182 | 5.63222 | 30 ft | 2 kts | 285° |
| 2026-05-06 18:39 | 58.88178 | 5.63250 | 30 ft | 2 kts | 285° |
| 2026-05-06 18:40 | 58.88171 | 5.63306 | 30 ft | 2 kts | 285° |
| 2026-05-06 18:40 | 58.88167 | 5.63334 | 30 ft | 2 kts | 285° |
| 2026-05-06 18:40 | 58.88165 | 5.63346 | 30 ft | 0 kts | 285° |
| 2026-05-06 18:44 | 58.88165 | 5.63344 | 30 ft | 0 kts | 285° |
| 2026-05-06 18:44 | 58.88167 | 5.63332 | 30 ft | 1 kts | 285° |
| 2026-05-06 18:44 | 58.88166 | 5.63312 | 30 ft | 1 kts | 249° |
| 2026-05-06 18:45 | 58.88155 | 5.63295 | 30 ft | 3 kts | 208° |
| 2026-05-06 18:45 | 58.88129 | 5.63267 | 29 ft | 5 kts | 208° |
| 2026-05-06 18:45 | 58.88090 | 5.63223 | 29 ft | 7 kts | 212° |
| 2026-05-06 18:45 | 58.88036 | 5.63231 | 28 ft | 9 kts | 132° |
| 2026-05-06 18:46 | 58.87995 | 5.63341 | 29 ft | 10 kts | 130° |
| 2026-05-06 18:46 | 58.87927 | 5.63351 | 28 ft | 12 kts | 204° |
| 2026-05-06 18:46 | 58.87845 | 5.63291 | 26 ft | 10 kts | 186° |
| 2026-05-06 18:46 | 58.87766 | 5.63294 | 26 ft | 11 kts | 155° |
| 2026-05-06 18:47 | 58.87733 | 5.63439 | 26 ft | 12 kts | 106° |
| 2026-05-06 18:47 | 58.87709 | 5.63593 | 29 ft | 11 kts | 107° |
| 2026-05-06 18:47 | 58.87687 | 5.63728 | 29 ft | 8 kts | 107° |
| 2026-05-06 18:47 | 58.87723 | 5.63777 | 29 ft | 8 kts | 359° |
| 2026-05-06 18:48 | 58.87793 | 5.63774 | 29 ft | 15 kts | 359° |
| 2026-05-06 18:48 | 58.88118 | 5.63762 | 32 ft | 82 kts | 359° |
| 2026-05-06 18:48 | 58.88906 | 5.63747 | 38 ft | 140 kts | 358° |
| 2026-05-06 18:48 | 58.89880 | 5.63741 | 628 ft | 140 kts | 356° |
| 2026-05-06 18:49 | 58.90844 | 5.63677 | 1236 ft | 145 kts | 356° |
| 2026-05-06 18:49 | 58.91845 | 5.63582 | 1898 ft | 147 kts | 356° |
| 2026-05-06 18:49 | 58.92896 | 5.63459 | 2376 ft | 158 kts | 356° |
| 2026-05-06 18:49 | 58.94041 | 5.63298 | 2820 ft | 173 kts | 356° |
| 2026-05-06 18:50 | 58.95297 | 5.63228 | 3311 ft | 187 kts | 0° |
| 2026-05-06 18:50 | 58.96614 | 5.63297 | 3797 ft | 202 kts | 2° |
| 2026-05-06 18:50 | 58.98096 | 5.63460 | 4277 ft | 221 kts | 6° |
| 2026-05-06 18:50 | 58.99587 | 5.64530 | 4755 ft | 243 kts | 36° |
| 2026-05-06 18:51 | 59.00524 | 5.67314 | 5318 ft | 264 kts | 75° |
| 2026-05-06 18:51 | 59.00447 | 5.70881 | 6173 ft | 276 kts | 108° |
| 2026-05-06 18:51 | 58.99382 | 5.73945 | 7052 ft | 283 kts | 140° |
| 2026-05-06 18:51 | 58.97634 | 5.75662 | 7881 ft | 287 kts | 163° |
| 2026-05-06 18:52 | 58.95715 | 5.76727 | 8681 ft | 293 kts | 166° |
| 2026-05-06 18:52 | 58.93773 | 5.77775 | 9573 ft | 295 kts | 166° |
| 2026-05-06 18:52 | 58.91826 | 5.78981 | 10462 ft | 297 kts | 163° |
| 2026-05-06 18:52 | 58.89877 | 5.80417 | 11118 ft | 308 kts | 162° |
| 2026-05-06 18:53 | 58.87828 | 5.81968 | 11528 ft | 326 kts | 161° |
| 2026-05-06 18:53 | 58.85677 | 5.83642 | 11912 ft | 344 kts | 161° |
| 2026-05-06 18:53 | 58.83421 | 5.85433 | 12245 ft | 362 kts | 160° |
| 2026-05-06 18:53 | 58.81059 | 5.87334 | 12778 ft | 372 kts | 160° |
| 2026-05-06 18:54 | 58.78680 | 5.89264 | 13530 ft | 376 kts | 161° |
| 2026-05-06 18:54 | 58.76285 | 5.91212 | 14270 ft | 379 kts | 161° |
| 2026-05-06 18:54 | 58.73833 | 5.93201 | 14990 ft | 383 kts | 161° |
| 2026-05-06 18:54 | 58.71381 | 5.95188 | 15686 ft | 386 kts | 161° |
| 2026-05-06 18:55 | 58.68919 | 5.97179 | 16348 ft | 390 kts | 162° |
| 2026-05-06 18:55 | 58.66393 | 5.99215 | 16996 ft | 393 kts | 162° |
| 2026-05-06 18:55 | 58.63874 | 6.01243 | 17616 ft | 397 kts | 162° |
| 2026-05-06 18:55 | 58.61338 | 6.03287 | 18235 ft | 401 kts | 162° |
| 2026-05-06 18:56 | 58.58765 | 6.05355 | 18851 ft | 404 kts | 162° |
| 2026-05-06 18:56 | 58.56169 | 6.07437 | 19433 ft | 407 kts | 162° |
| 2026-05-06 18:56 | 58.53583 | 6.09502 | 20002 ft | 411 kts | 162° |
| 2026-05-06 18:56 | 58.50921 | 6.11626 | 20551 ft | 415 kts | 162° |
| 2026-05-06 18:57 | 58.48279 | 6.13738 | 21083 ft | 419 kts | 162° |
| 2026-05-06 18:57 | 58.45583 | 6.15892 | 21601 ft | 422 kts | 162° |
| 2026-05-06 18:57 | 58.42855 | 6.18062 | 22124 ft | 426 kts | 162° |
| 2026-05-06 18:57 | 58.40116 | 6.20232 | 22632 ft | 429 kts | 162° |
| 2026-05-06 18:58 | 58.37373 | 6.22482 | 23122 ft | 435 kts | 159° |
| 2026-05-06 18:58 | 58.34738 | 6.25359 | 23584 ft | 443 kts | 150° |
| 2026-05-06 18:58 | 58.32288 | 6.29014 | 24046 ft | 451 kts | 141° |
| 2026-05-06 18:58 | 58.30059 | 6.33167 | 24520 ft | 455 kts | 138° |
| 2026-05-06 18:59 | 58.27845 | 6.37483 | 24953 ft | 458 kts | 137° |
| 2026-05-06 18:59 | 58.25642 | 6.41797 | 25370 ft | 461 kts | 137° |
| 2026-05-06 18:59 | 58.23400 | 6.46163 | 25781 ft | 464 kts | 138° |
| 2026-05-06 18:59 | 58.21153 | 6.50504 | 26286 ft | 463 kts | 138° |
| 2026-05-06 19:00 | 58.18920 | 6.54798 | 26911 ft | 460 kts | 138° |
| 2026-05-06 19:00 | 58.16679 | 6.59096 | 27528 ft | 456 kts | 139° |
| 2026-05-06 19:00 | 58.14470 | 6.63313 | 28080 ft | 454 kts | 139° |
| 2026-05-06 19:00 | 58.12261 | 6.67517 | 28602 ft | 453 kts | 140° |
| 2026-05-06 19:01 | 58.10049 | 6.71716 | 29153 ft | 450 kts | 140° |
| 2026-05-06 19:01 | 58.07846 | 6.75895 | 29632 ft | 449 kts | 140° |
| 2026-05-06 19:01 | 58.05639 | 6.80066 | 30006 ft | 451 kts | 140° |
| 2026-05-06 19:01 | 58.03461 | 6.84178 | 30369 ft | 452 kts | 140° |
| 2026-05-06 19:02 | 58.01220 | 6.88400 | 30734 ft | 453 kts | 140° |
| 2026-05-06 19:02 | 57.99003 | 6.92575 | 30967 ft | 455 kts | 140° |
| 2026-05-06 19:02 | 57.96783 | 6.96742 | 30966 ft | 455 kts | 140° |
| 2026-05-06 19:03 | 57.92304 | 7.05137 | 30965 ft | 454 kts | 140° |
| 2026-05-06 19:03 | 57.87856 | 7.13443 | 30959 ft | 454 kts | 140° |
| 2026-05-06 19:04 | 57.83384 | 7.21757 | 30957 ft | 453 kts | 140° |
| 2026-05-06 19:04 | 57.78880 | 7.30074 | 30959 ft | 453 kts | 140° |
| 2026-05-06 19:05 | 57.74395 | 7.38288 | 30951 ft | 453 kts | 140° |
| 2026-05-06 19:05 | 57.69910 | 7.46481 | 30965 ft | 453 kts | 141° |
| 2026-05-06 19:06 | 57.65400 | 7.54694 | 30957 ft | 453 kts | 141° |
| 2026-05-06 19:06 | 57.60920 | 7.62823 | 30958 ft | 453 kts | 141° |
| 2026-05-06 19:07 | 57.56399 | 7.71001 | 30956 ft | 451 kts | 141° |
| 2026-05-06 19:07 | 57.51902 | 7.79105 | 30962 ft | 450 kts | 142° |
| 2026-05-06 19:08 | 57.47420 | 7.87151 | 30956 ft | 450 kts | 142° |
| 2026-05-06 19:08 | 57.42930 | 7.95181 | 30961 ft | 450 kts | 142° |
| 2026-05-06 19:09 | 57.38438 | 8.03186 | 30962 ft | 450 kts | 142° |
| 2026-05-06 19:09 | 57.33957 | 8.11146 | 30963 ft | 450 kts | 141° |
| 2026-05-06 19:10 | 57.29438 | 8.19144 | 30965 ft | 449 kts | 142° |
| 2026-05-06 19:10 | 57.24942 | 8.27072 | 30975 ft | 449 kts | 142° |
| 2026-05-06 19:11 | 57.20457 | 8.34957 | 30976 ft | 449 kts | 142° |
| 2026-05-06 19:11 | 57.15926 | 8.42893 | 30984 ft | 448 kts | 142° |
| 2026-05-06 19:12 | 57.11421 | 8.50751 | 30985 ft | 447 kts | 142° |
| 2026-05-06 19:12 | 57.06913 | 8.58587 | 30984 ft | 447 kts | 142° |
| 2026-05-06 19:13 | 57.02416 | 8.66378 | 30980 ft | 447 kts | 143° |
| 2026-05-06 19:13 | 56.97886 | 8.74200 | 30975 ft | 448 kts | 142° |
| 2026-05-06 19:14 | 56.93398 | 8.81922 | 30972 ft | 448 kts | 142° |
| 2026-05-06 19:14 | 56.88849 | 8.89722 | 30970 ft | 448 kts | 142° |
| 2026-05-06 19:15 | 56.84318 | 8.97466 | 30969 ft | 447 kts | 143° |
| 2026-05-06 19:15 | 56.79810 | 9.05143 | 30969 ft | 446 kts | 143° |
| 2026-05-06 19:16 | 56.75282 | 9.12825 | 30966 ft | 445 kts | 143° |
| 2026-05-06 19:16 | 56.70755 | 9.20477 | 30961 ft | 445 kts | 143° |
| 2026-05-06 19:17 | 56.66237 | 9.28093 | 30962 ft | 444 kts | 143° |
| 2026-05-06 19:17 | 56.61736 | 9.35648 | 30962 ft | 444 kts | 142° |
| 2026-05-06 19:18 | 56.57209 | 9.43228 | 30962 ft | 443 kts | 142° |
| 2026-05-06 19:18 | 56.52673 | 9.50797 | 30963 ft | 443 kts | 142° |
| 2026-05-06 19:19 | 56.48136 | 9.58338 | 30961 ft | 443 kts | 142° |
| 2026-05-06 19:19 | 56.43612 | 9.65833 | 30959 ft | 443 kts | 143° |
| 2026-05-06 19:20 | 56.39069 | 9.73336 | 30959 ft | 442 kts | 143° |
| 2026-05-06 19:20 | 56.34537 | 9.80792 | 30957 ft | 442 kts | 143° |
| 2026-05-06 19:21 | 56.30005 | 9.88223 | 30954 ft | 441 kts | 143° |
| 2026-05-06 19:21 | 56.25493 | 9.95601 | 30951 ft | 441 kts | 143° |
| 2026-05-06 19:22 | 56.20962 | 10.02984 | 30950 ft | 440 kts | 143° |
| 2026-05-06 19:22 | 56.16454 | 10.10303 | 30797 ft | 441 kts | 143° |
| 2026-05-06 19:22 | 56.14197 | 10.13961 | 30503 ft | 438 kts | 143° |
| 2026-05-06 19:23 | 56.11926 | 10.17637 | 30081 ft | 436 kts | 143° |
| 2026-05-06 19:23 | 56.09708 | 10.21219 | 29549 ft | 433 kts | 143° |
| 2026-05-06 19:23 | 56.07456 | 10.24851 | 28916 ft | 433 kts | 143° |
| 2026-05-06 19:23 | 56.05230 | 10.28433 | 28247 ft | 433 kts | 143° |
| 2026-05-06 19:24 | 56.02984 | 10.32038 | 27551 ft | 433 kts | 142° |
| 2026-05-06 19:24 | 56.00761 | 10.35606 | 26839 ft | 433 kts | 142° |
| 2026-05-06 19:24 | 55.98534 | 10.39175 | 26123 ft | 434 kts | 142° |
| 2026-05-06 19:24 | 55.96285 | 10.42771 | 25380 ft | 434 kts | 142° |
| 2026-05-06 19:25 | 55.94060 | 10.46320 | 24851 ft | 434 kts | 142° |
| 2026-05-06 19:25 | 55.91859 | 10.50010 | 24340 ft | 434 kts | 135° |
| 2026-05-06 19:25 | 55.90120 | 10.54365 | 23828 ft | 438 kts | 121° |
| 2026-05-06 19:25 | 55.88986 | 10.59316 | 23310 ft | 440 kts | 108° |
| 2026-05-06 19:26 | 55.88297 | 10.64635 | 22801 ft | 438 kts | 103° |
| 2026-05-06 19:26 | 55.87700 | 10.69905 | 22278 ft | 435 kts | 104° |
| 2026-05-06 19:26 | 55.87104 | 10.75165 | 21754 ft | 432 kts | 104° |
| 2026-05-06 19:26 | 55.86494 | 10.80362 | 21234 ft | 429 kts | 104° |
| 2026-05-06 19:27 | 55.85869 | 10.85517 | 20718 ft | 426 kts | 104° |
| 2026-05-06 19:27 | 55.85248 | 10.90568 | 20208 ft | 422 kts | 104° |
| 2026-05-06 19:27 | 55.84569 | 10.95639 | 19686 ft | 419 kts | 106° |
| 2026-05-06 19:27 | 55.83840 | 11.00627 | 19153 ft | 416 kts | 106° |
| 2026-05-06 19:28 | 55.83109 | 11.05571 | 18629 ft | 413 kts | 106° |
| 2026-05-06 19:28 | 55.82390 | 11.10429 | 18117 ft | 410 kts | 106° |
| 2026-05-06 19:28 | 55.81659 | 11.15353 | 17597 ft | 407 kts | 105° |
| 2026-05-06 19:28 | 55.80949 | 11.20141 | 17276 ft | 397 kts | 105° |
| 2026-05-06 19:29 | 55.80263 | 11.24760 | 17071 ft | 385 kts | 105° |
| 2026-05-06 19:29 | 55.79584 | 11.29312 | 16909 ft | 372 kts | 105° |
| 2026-05-06 19:29 | 55.78933 | 11.33661 | 16747 ft | 360 kts | 105° |
| 2026-05-06 19:29 | 55.78306 | 11.37839 | 16594 ft | 348 kts | 105° |
| 2026-05-06 19:30 | 55.77713 | 11.41910 | 16453 ft | 337 kts | 103° |
| 2026-05-06 19:30 | 55.77285 | 11.45978 | 16249 ft | 331 kts | 98° |
| 2026-05-06 19:30 | 55.77026 | 11.50009 | 15855 ft | 330 kts | 96° |
| 2026-05-06 19:30 | 55.76807 | 11.54031 | 15528 ft | 326 kts | 95° |
| 2026-05-06 19:31 | 55.76595 | 11.57989 | 15186 ft | 323 kts | 95° |
| 2026-05-06 19:31 | 55.76381 | 11.61910 | 14841 ft | 320 kts | 95° |
| 2026-05-06 19:31 | 55.75946 | 11.69697 | 14148 ft | 315 kts | 96° |
| 2026-05-06 19:32 | 55.75728 | 11.73522 | 13796 ft | 313 kts | 96° |
| 2026-05-06 19:32 | 55.75507 | 11.77365 | 13445 ft | 310 kts | 96° |
| 2026-05-06 19:32 | 55.75289 | 11.81125 | 13084 ft | 308 kts | 96° |
| 2026-05-06 19:32 | 55.75071 | 11.84869 | 12735 ft | 306 kts | 96° |
| 2026-05-06 19:33 | 55.74852 | 11.88612 | 12372 ft | 305 kts | 96° |
| 2026-05-06 19:33 | 55.74637 | 11.92286 | 12014 ft | 303 kts | 96° |
| 2026-05-06 19:33 | 55.74419 | 11.95982 | 11676 ft | 301 kts | 96° |
| 2026-05-06 19:33 | 55.74199 | 11.99653 | 11341 ft | 299 kts | 96° |
| 2026-05-06 19:34 | 55.73979 | 12.03320 | 11001 ft | 296 kts | 96° |
| 2026-05-06 19:34 | 55.73761 | 12.06942 | 10649 ft | 294 kts | 95° |
| 2026-05-06 19:34 | 55.73548 | 12.10488 | 10322 ft | 292 kts | 95° |
| 2026-05-06 19:34 | 55.73331 | 12.14065 | 9982 ft | 290 kts | 95° |
| 2026-05-06 19:35 | 55.73116 | 12.17615 | 9647 ft | 288 kts | 95° |
| 2026-05-06 19:35 | 55.72901 | 12.21122 | 9311 ft | 286 kts | 95° |
| 2026-05-06 19:35 | 55.72687 | 12.24581 | 8997 ft | 283 kts | 95° |
| 2026-05-06 19:35 | 55.72473 | 12.28058 | 8656 ft | 281 kts | 95° |
| 2026-05-06 19:36 | 55.72262 | 12.31457 | 8352 ft | 279 kts | 95° |
| 2026-05-06 19:36 | 55.72051 | 12.34861 | 8031 ft | 277 kts | 94° |
| 2026-05-06 19:36 | 55.72129 | 12.38211 | 7666 ft | 274 kts | 70° |
| 2026-05-06 19:36 | 55.72938 | 12.41247 | 7486 ft | 270 kts | 58° |
| 2026-05-06 19:37 | 55.73887 | 12.44083 | 7349 ft | 269 kts | 58° |
| 2026-05-06 19:37 | 55.74830 | 12.46949 | 7216 ft | 268 kts | 59° |
| 2026-05-06 19:37 | 55.75730 | 12.49815 | 6945 ft | 262 kts | 60° |
| 2026-05-06 19:37 | 55.76582 | 12.52627 | 6459 ft | 261 kts | 60° |
| 2026-05-06 19:38 | 55.77421 | 12.55457 | 6038 ft | 253 kts | 61° |
| 2026-05-06 19:38 | 55.78198 | 12.58117 | 5732 ft | 239 kts | 61° |
| 2026-05-06 19:38 | 55.78953 | 12.60723 | 5446 ft | 232 kts | 62° |
| 2026-05-06 19:38 | 55.79674 | 12.63221 | 5216 ft | 226 kts | 62° |
| 2026-05-06 19:39 | 55.80380 | 12.65677 | 4957 ft | 224 kts | 63° |
| 2026-05-06 19:39 | 55.81088 | 12.68145 | 4685 ft | 224 kts | 63° |
| 2026-05-06 19:39 | 55.81798 | 12.70596 | 4407 ft | 223 kts | 63° |
| 2026-05-06 19:39 | 55.82516 | 12.73049 | 4125 ft | 222 kts | 63° |
| 2026-05-06 19:40 | 55.83213 | 12.75413 | 3992 ft | 213 kts | 63° |
| 2026-05-06 19:40 | 55.83885 | 12.77685 | 3961 ft | 200 kts | 63° |
| 2026-05-06 19:40 | 55.84523 | 12.79841 | 3696 ft | 199 kts | 63° |
| 2026-05-06 19:40 | 55.85171 | 12.82022 | 3406 ft | 199 kts | 63° |
| 2026-05-06 19:41 | 55.85815 | 12.84177 | 3148 ft | 198 kts | 63° |
| 2026-05-06 19:41 | 55.86195 | 12.86492 | 2986 ft | 194 kts | 94° |
| 2026-05-06 19:41 | 55.85749 | 12.88740 | 3002 ft | 199 kts | 124° |
| 2026-05-06 19:41 | 55.84663 | 12.90264 | 2987 ft | 205 kts | 160° |
| 2026-05-06 19:42 | 55.83236 | 12.90497 | 3006 ft | 209 kts | 181° |
| 2026-05-06 19:42 | 55.81780 | 12.90236 | 2999 ft | 210 kts | 185° |
| 2026-05-06 19:42 | 55.80342 | 12.89887 | 2994 ft | 210 kts | 185° |
| 2026-05-06 19:42 | 55.78896 | 12.89519 | 2993 ft | 209 kts | 185° |
| 2026-05-06 19:43 | 55.77465 | 12.89151 | 2989 ft | 209 kts | 189° |
| 2026-05-06 19:43 | 55.76162 | 12.88039 | 2995 ft | 213 kts | 214° |
| 2026-05-06 19:43 | 55.75012 | 12.86338 | 3003 ft | 213 kts | 220° |
| 2026-05-06 19:43 | 55.73924 | 12.84599 | 2991 ft | 214 kts | 221° |
| 2026-05-06 19:44 | 55.72844 | 12.82784 | 2813 ft | 212 kts | 222° |
| 2026-05-06 19:44 | 55.71779 | 12.81026 | 2591 ft | 208 kts | 220° |
| 2026-05-06 19:44 | 55.70700 | 12.79354 | 2327 ft | 200 kts | 217° |
| 2026-05-06 19:44 | 55.69655 | 12.77834 | 2024 ft | 193 kts | 218° |
| 2026-05-06 19:45 | 55.68676 | 12.76292 | 1786 ft | 186 kts | 219° |
| 2026-05-06 19:45 | 55.67702 | 12.74759 | 1588 ft | 188 kts | 218° |
| 2026-05-06 19:45 | 55.66708 | 12.73260 | 1274 ft | 188 kts | 217° |
| 2026-05-06 19:45 | 55.65705 | 12.71789 | 1023 ft | 187 kts | 220° |
| 2026-05-06 19:46 | 55.64802 | 12.70165 | 862 ft | 185 kts | 222° |
| 2026-05-06 19:46 | 55.63821 | 12.68687 | 1205 ft | 188 kts | 216° |
| 2026-05-06 19:46 | 55.62835 | 12.67209 | 1993 ft | 188 kts | 219° |
| 2026-05-06 19:46 | 55.61871 | 12.65674 | 2619 ft | 192 kts | 220° |
| 2026-05-06 19:47 | 55.60849 | 12.64050 | 2939 ft | 204 kts | 220° |
| 2026-05-06 19:47 | 55.59723 | 12.62263 | 2995 ft | 224 kts | 220° |
| 2026-05-06 19:47 | 55.58549 | 12.60416 | 2924 ft | 226 kts | 217° |
| 2026-05-06 19:47 | 55.57171 | 12.59168 | 2959 ft | 223 kts | 193° |
| 2026-05-06 19:48 | 55.55678 | 12.58538 | 2985 ft | 223 kts | 189° |
| 2026-05-06 19:48 | 55.54154 | 12.58015 | 2991 ft | 222 kts | 188° |
| 2026-05-06 19:48 | 55.52618 | 12.57514 | 2995 ft | 222 kts | 187° |
| 2026-05-06 19:48 | 55.51104 | 12.57020 | 2995 ft | 223 kts | 187° |
| 2026-05-06 19:49 | 55.49595 | 12.56525 | 2993 ft | 223 kts | 188° |
| 2026-05-06 19:49 | 55.48054 | 12.56221 | 2980 ft | 220 kts | 169° |
| 2026-05-06 19:49 | 55.46691 | 12.57197 | 2982 ft | 213 kts | 135° |
| 2026-05-06 19:49 | 55.45910 | 12.59312 | 2981 ft | 207 kts | 102° |
| 2026-05-06 19:50 | 55.45981 | 12.61787 | 2987 ft | 206 kts | 68° |
| 2026-05-06 19:50 | 55.46802 | 12.63883 | 2993 ft | 208 kts | 50° |
| 2026-05-06 19:50 | 55.47809 | 12.65679 | 2989 ft | 207 kts | 46° |
| 2026-05-06 19:50 | 55.48847 | 12.67418 | 2991 ft | 208 kts | 46° |
| 2026-05-06 19:51 | 55.49902 | 12.69156 | 2992 ft | 208 kts | 44° |
| 2026-05-06 19:51 | 55.51055 | 12.70736 | 3001 ft | 215 kts | 37° |
| 2026-05-06 19:51 | 55.52312 | 12.72223 | 2996 ft | 217 kts | 36° |
| 2026-05-06 19:51 | 55.53578 | 12.73680 | 2995 ft | 217 kts | 36° |
| 2026-05-06 19:52 | 55.54834 | 12.75118 | 2999 ft | 217 kts | 36° |
| 2026-05-06 19:52 | 55.56099 | 12.76574 | 3003 ft | 218 kts | 36° |
| 2026-05-06 19:52 | 55.57376 | 12.78053 | 2999 ft | 218 kts | 36° |
| 2026-05-06 19:52 | 55.58642 | 12.79523 | 3001 ft | 218 kts | 36° |
| 2026-05-06 19:53 | 55.59903 | 12.80990 | 3001 ft | 219 kts | 36° |
| 2026-05-06 19:53 | 55.61164 | 12.82465 | 3001 ft | 219 kts | 36° |
| 2026-05-06 19:53 | 55.62451 | 12.83974 | 3004 ft | 219 kts | 36° |
| 2026-05-06 19:53 | 55.63718 | 12.85462 | 3002 ft | 219 kts | 36° |
| 2026-05-06 19:54 | 55.64970 | 12.86932 | 3001 ft | 219 kts | 36° |
| 2026-05-06 19:54 | 55.66237 | 12.88419 | 3002 ft | 219 kts | 36° |
| 2026-05-06 19:54 | 55.67509 | 12.89912 | 3003 ft | 219 kts | 36° |
| 2026-05-06 19:54 | 55.68788 | 12.91411 | 3003 ft | 219 kts | 36° |
| 2026-05-06 19:55 | 55.70040 | 12.92874 | 3006 ft | 218 kts | 36° |
| 2026-05-06 19:55 | 55.71320 | 12.94365 | 2999 ft | 218 kts | 36° |
| 2026-05-06 19:55 | 55.72573 | 12.95824 | 3000 ft | 217 kts | 34° |
| 2026-05-06 19:55 | 55.73973 | 12.96799 | 2987 ft | 220 kts | 6° |
| 2026-05-06 19:56 | 55.75422 | 12.96275 | 2978 ft | 212 kts | 331° |
| 2026-05-06 19:56 | 55.76417 | 12.94393 | 2985 ft | 215 kts | 295° |
| 2026-05-06 19:56 | 55.76693 | 12.91793 | 3007 ft | 218 kts | 271° |
| 2026-05-06 19:56 | 55.76620 | 12.89124 | 3023 ft | 216 kts | 256° |
| 2026-05-06 19:57 | 55.75825 | 12.86910 | 2949 ft | 215 kts | 220° |
| 2026-05-06 19:57 | 55.74654 | 12.85323 | 2961 ft | 214 kts | 213° |
| 2026-05-06 19:57 | 55.73483 | 12.83705 | 2902 ft | 215 kts | 220° |
| 2026-05-06 19:57 | 55.72396 | 12.81879 | 2672 ft | 213 kts | 223° |
| 2026-05-06 19:58 | 55.71346 | 12.80130 | 2407 ft | 204 kts | 219° |
| 2026-05-06 19:58 | 55.70287 | 12.78585 | 2188 ft | 192 kts | 213° |
| 2026-05-06 19:58 | 55.69227 | 12.77211 | 2028 ft | 187 kts | 214° |
| 2026-05-06 19:58 | 55.68266 | 12.75731 | 1705 ft | 180 kts | 222° |
| 2026-05-06 19:59 | 55.67417 | 12.74187 | 1370 ft | 170 kts | 221° |
| 2026-05-06 19:59 | 55.66547 | 12.72940 | 1115 ft | 155 kts | 213° |
| 2026-05-06 19:59 | 55.65744 | 12.71776 | 836 ft | 145 kts | 219° |
| 2026-05-06 19:59 | 55.65061 | 12.70585 | 633 ft | 133 kts | 219° |
| 2026-05-06 20:00 | 55.64345 | 12.69551 | 476 ft | 130 kts | 218° |
| 2026-05-06 20:00 | 55.63676 | 12.68482 | 319 ft | 130 kts | 217° |
| 2026-05-06 20:00 | 55.62991 | 12.67456 | 162 ft | 129 kts | 219° |
| 2026-05-06 20:00 | 55.62319 | 12.66409 | 15 ft | 125 kts | 219° |
| 2026-05-06 20:01 | 55.61765 | 12.65566 | 15 ft | 82 kts | 222° |
| 2026-05-06 20:01 | 55.61460 | 12.65081 | 15 ft | 41 kts | 222° |
| 2026-05-06 20:01 | 55.61297 | 12.64781 | 15 ft | 28 kts | 240° |
| 2026-05-06 20:01 | 55.61227 | 12.64481 | 15 ft | 21 kts | 252° |
| 2026-05-06 20:02 | 55.61190 | 12.64290 | 15 ft | 15 kts | 252° |
| 2026-05-06 20:02 | 55.61215 | 12.64119 | 16 ft | 15 kts | 326° |
| 2026-05-06 20:02 | 55.61313 | 12.64148 | 15 ft | 16 kts | 34° |
| 2026-05-06 20:02 | 55.61406 | 12.64260 | 17 ft | 15 kts | 35° |
| 2026-05-06 20:03 | 55.61505 | 12.64370 | 15 ft | 17 kts | 32° |
| 2026-05-06 20:03 | 55.61607 | 12.64490 | 15 ft | 17 kts | 36° |
| 2026-05-06 20:03 | 55.61711 | 12.64611 | 15 ft | 18 kts | 33° |
| 2026-05-06 20:03 | 55.61818 | 12.64733 | 15 ft | 18 kts | 33° |
| 2026-05-06 20:04 | 55.61926 | 12.64855 | 15 ft | 18 kts | 33° |
| 2026-05-06 20:04 | 55.62035 | 12.64984 | 15 ft | 18 kts | 33° |
| 2026-05-06 20:04 | 55.62145 | 12.65108 | 15 ft | 19 kts | 33° |
| 2026-05-06 20:04 | 55.62230 | 12.65172 | 16 ft | 11 kts | 339° |
| 2026-05-06 20:05 | 55.62280 | 12.65059 | 17 ft | 12 kts | 302° |
| 2026-05-06 20:05 | 55.62327 | 12.64931 | 17 ft | 13 kts | 304° |
| 2026-05-06 20:05 | 55.62383 | 12.64783 | 16 ft | 14 kts | 303° |
| 2026-05-06 20:05 | 55.62440 | 12.64630 | 17 ft | 14 kts | 303° |
| 2026-05-06 20:06 | 55.62496 | 12.64475 | 18 ft | 15 kts | 303° |
| 2026-05-06 20:06 | 55.62553 | 12.64325 | 16 ft | 10 kts | 304° |
| 2026-05-06 20:06 | 55.62608 | 12.64270 | 17 ft | 9 kts | 16° |
| 2026-05-06 20:06 | 55.62669 | 12.64317 | 18 ft | 9 kts | 21° |
| 2026-05-06 20:07 | 55.62734 | 12.64368 | 18 ft | 8 kts | 26° |
| 2026-05-06 20:07 | 55.62757 | 12.64429 | 18 ft | 4 kts | 96° |
| 2026-05-06 20:07 | 55.62754 | 12.64464 | 18 ft | 0 kts | 102° |